Time;durP1;ratioP1;P1;durP2;ratioP2;P2;SDS_P1;SDS_P2;PMS_P1;PMS_P2;Temp;Humidity;BMP_temperature;BMP_pressure;BME280_temperature;BME280_humidity;BME280_pressure;Samples;Min_cycle;Max_cycle;Signal;HPM_P1;HPM_P2
2023/04/30 00:01:48;;;;;;;23.52;18.08;;;8.70;99.90;;;;;;4304072;28;9999926;-80
2023/04/30 00:04:14;;;;;;;25.17;18.83;;;8.50;99.90;;;;;;5004512;28;20029;-80
2023/04/30 00:06:40;;;;;;;21.80;16.33;;;8.40;99.90;;;;;;5010574;28;20099;-80
2023/04/30 00:09:05;;;;;;;21.30;16.50;;;8.30;99.90;;;;;;5007015;28;20105;-81
2023/04/30 00:11:31;;;;;;;26.52;17.95;;;8.30;99.90;;;;;;5010125;28;20026;-81
2023/04/30 00:13:57;;;;;;;27.08;18.33;;;8.40;99.90;;;;;;5010748;28;20455;-81
2023/04/30 00:16:22;;;;;;;26.17;20.25;;;8.40;99.90;;;;;;5003542;28;20037;-81
2023/04/30 00:18:48;;;;;;;29.70;19.77;;;8.50;99.90;;;;;;5006945;28;20108;-81
2023/04/30 00:21:13;;;;;;;27.95;20.67;;;8.40;99.90;;;;;;5009758;28;20112;-81
2023/04/30 00:23:39;;;;;;;29.10;21.77;;;8.40;99.90;;;;;;5003182;28;20382;-81
2023/04/30 00:26:05;;;;;;;31.73;23.30;;;8.40;99.90;;;;;;5009702;28;20029;-81
2023/04/30 00:28:30;;;;;;;34.13;23.83;;;8.40;99.90;;;;;;5004708;28;20410;-80
2023/04/30 00:30:56;;;;;;;39.33;26.23;;;8.40;99.90;;;;;;5009328;28;20120;-81
2023/04/30 00:33:21;;;;;;;33.08;25.02;;;8.40;99.90;;;;;;5008648;28;20033;-81
2023/04/30 00:35:47;;;;;;;31.38;24.83;;;8.30;99.90;;;;;;4999010;28;20022;-81
2023/04/30 00:38:13;;;;;;;32.65;25.20;;;8.40;99.90;;;;;;5009601;28;20025;-81
2023/04/30 00:40:41;;;;;;;33.25;24.33;;;8.40;99.90;;;;;;5005653;28;20033;-81
2023/04/30 00:43:06;;;;;;;32.08;24.63;;;8.30;99.90;;;;;;5004500;28;20030;-80
2023/04/30 00:45:32;;;;;;;31.85;23.92;;;8.30;99.90;;;;;;5003060;28;20041;-80
2023/04/30 00:47:57;;;;;;;29.67;22.85;;;8.30;99.90;;;;;;4998428;28;20030;-81
2023/04/30 00:50:23;;;;;;;32.42;23.58;;;8.20;99.90;;;;;;5004590;28;20048;-82
2023/04/30 00:52:49;;;;;;;28.83;22.23;;;8.10;99.90;;;;;;5001055;28;20022;-81
2023/04/30 00:55:15;;;;;;;27.65;21.20;;;7.90;99.90;;;;;;4993993;28;20034;-82
2023/04/30 00:57:41;;;;;;;26.25;20.95;;;7.70;99.90;;;;;;5008632;28;20454;-81
2023/04/30 01:00:10;;;;;;;25.55;20.55;;;7.60;99.90;;;;;;5003574;28;20068;-81
2023/04/30 01:02:37;;;;;;;28.95;21.55;;;7.40;99.90;;;;;;5007255;28;20022;-81
2023/04/30 01:05:03;;;;;;;27.10;21.88;;;7.30;99.90;;;;;;5008756;28;20687;-81
2023/04/30 01:07:30;;;;;;;34.97;23.95;;;7.30;99.90;;;;;;5007808;28;20033;-81
2023/04/30 01:09:56;;;;;;;33.20;24.85;;;7.40;99.90;;;;;;4999948;28;20092;-80
2023/04/30 01:12:56;;;;;;;32.60;22.95;;;7.50;99.90;;;;;;4996765;28;20030;-81
2023/04/30 01:15:37;;;;;;;31.98;24.13;;;7.60;99.90;;;;;;5001500;28;20037;-81
2023/04/30 01:18:13;;;;;;;32.75;23.08;;;7.70;99.90;;;;;;5005708;28;20045;-80
2023/04/30 01:20:46;;;;;;;28.90;21.35;;;7.80;99.90;;;;;;5008373;28;20041;-81
2023/04/30 01:23:38;;;;;;;;;;;7.80;99.90;;;;;;5009345;28;20049;-81
2023/04/30 01:26:19;;;;;;;24.80;19.75;;;7.60;99.90;;;;;;5005855;28;20106;-80
2023/04/30 01:28:45;;;;;;;26.27;19.77;;;;;;;;;;4992700;28;20026;-80
2023/04/30 01:31:15;;;;;;;24.95;19.67;;;;;;;;;;4993184;28;20026;-81
2023/04/30 01:33:41;;;;;;;26.58;20.85;;;;;;;;;;5007714;28;20299;-83
2023/04/30 01:36:21;;;;;;;28.80;21.02;;;;;;;;;;5009438;28;20533;-81
2023/04/30 01:39:16;;;;;;;24.52;19.48;;;;;;;;;;5006693;28;20038;-80
2023/04/30 01:41:42;;;;;;;24.77;20.05;;;;;;;;;;4993909;28;20537;-81
2023/04/30 01:44:27;;;;;;;26.85;19.50;;;;;;;;;;4991224;28;20041;-81
2023/04/30 01:47:02;;;;;;;27.73;20.00;;;;;;;;;;5000917;28;20050;-81
2023/04/30 01:49:32;;;;;;;24.85;19.75;;;;;;;;;;4997769;28;20037;-80
2023/04/30 01:52:10;;;;;;;27.10;20.10;;;;;;;;;;5008665;28;20482;-80
2023/04/30 01:54:41;;;;;;;25.08;18.95;;;;;;;;;;5008353;28;20122;-81
2023/04/30 01:57:10;;;;;;;25.00;18.65;;;;;;;;;;4999645;28;20019;-81
2023/04/30 01:59:38;;;;;;;25.25;18.08;;;;;;;;;;4989494;28;20850;-81
2023/04/30 02:02:05;;;;;;;21.60;17.05;;;;;;;;;;5007192;28;20034;-82
2023/04/30 02:04:31;;;;;;;21.40;16.15;;;;;;;;;;5003370;28;20022;-82
2023/04/30 02:06:58;;;;;;;20.63;15.45;;;;;;;;;;5000482;28;20026;-83
2023/04/30 02:09:24;;;;;;;21.27;16.33;;;;;;;;;;5006274;28;20514;-81
2023/04/30 02:11:50;;;;;;;19.15;15.43;;;;;;;;;;5006274;28;20036;-81
2023/04/30 02:14:16;;;;;;;18.67;15.23;;;;;;;;;;4998218;28;20061;-81
2023/04/30 02:16:42;;;;;;;19.90;15.70;;;;;;;;;;5002235;28;20033;-81
2023/04/30 02:19:08;;;;;;;21.58;15.27;;;;;;;;;;5005667;28;20510;-81
2023/04/30 02:21:34;;;;;;;20.08;15.10;;;;;;;;;;5001046;28;20367;-81
2023/04/30 02:24:00;;;;;;;19.77;14.43;;;;;;;;;;5000831;28;20549;-81
2023/04/30 02:26:26;;;;;;;19.85;14.43;;;;;;;;;;5004166;28;20026;-81
2023/04/30 02:28:52;;;;;;;20.05;15.45;;;;;;;;;;5000387;28;20018;-81
2023/04/30 02:31:19;;;;;;;25.25;16.92;;;;;;;;;;5004639;28;20037;-82
2023/04/30 02:33:45;;;;;;;23.02;16.30;;;;;;;;;;5003486;28;20164;-81
2023/04/30 02:36:11;;;;;;;19.70;15.20;;;;;;;;;;5002816;28;20030;-81
2023/04/30 02:38:37;;;;;;;18.92;14.50;;;;;;;;;;5003842;28;20033;-81
2023/04/30 02:41:03;;;;;;;18.17;14.63;;;;;;;;;;5006799;28;20047;-81
2023/04/30 02:43:29;;;;;;;22.17;16.42;;;;;;;;;;4992552;28;20026;-83
2023/04/30 02:45:55;;;;;;;22.40;15.93;;;;;;;;;;4999602;28;20402;-82
2023/04/30 02:48:21;;;;;;;21.65;16.20;;;;;;;;;;5005243;28;20034;-82
2023/04/30 02:50:47;;;;;;;24.08;16.42;;;;;;;;;;5001776;28;20021;-82
2023/04/30 02:53:13;;;;;;;26.00;16.70;;;;;;;;;;5002681;28;20046;-82
2023/04/30 02:55:39;;;;;;;24.90;19.27;;;;;;;;;;5001355;28;20026;-82
2023/04/30 02:58:05;;;;;;;29.73;20.50;;;;;;;;;;4998028;28;20406;-83
2023/04/30 03:00:31;;;;;;;29.40;19.98;;;;;;;;;;5006831;28;20398;-82
2023/04/30 03:02:57;;;;;;;28.63;20.38;;;;;;;;;;5007449;28;20042;-82
2023/04/30 03:05:23;;;;;;;29.33;21.27;;;;;;;;;;5005186;28;20060;-82
2023/04/30 03:07:49;;;;;;;30.73;22.20;;;;;;;;;;4999522;28;20026;-82
2023/04/30 03:10:17;;;;;;;29.23;21.58;;;;;;;;;;4997973;28;20178;-82
2023/04/30 03:12:43;;;;;;;29.13;21.23;;;;;;;;;;5006572;28;20091;-82
2023/04/30 03:15:10;;;;;;;27.17;20.10;;;;;;;;;;5005725;28;20026;-82
2023/04/30 03:17:36;;;;;;;25.90;19.80;;;;;;;;;;5007696;28;20486;-82
2023/04/30 03:20:02;;;;;;;27.73;20.42;;;;;;;;;;5005516;28;20494;-82
2023/04/30 03:22:28;;;;;;;29.50;21.33;;;;;;;;;;5008338;28;20360;-83
2023/04/30 03:24:54;;;;;;;29.27;21.23;;;;;;;;;;5006257;28;20019;-82
2023/04/30 03:27:20;;;;;;;26.83;19.50;;;;;;;;;;4988378;28;20018;-82
2023/04/30 03:29:47;;;;;;;26.55;20.35;;;;;;;;;;5001638;28;20274;-82
2023/04/30 03:32:13;;;;;;;30.23;21.20;;;;;;;;;;5007234;28;20034;-82
2023/04/30 03:34:39;;;;;;;29.00;21.60;;;;;;;;;;5007693;28;20025;-82
2023/04/30 03:37:05;;;;;;;29.40;21.35;;;;;;;;;;5007914;28;20028;-82
2023/04/30 03:39:31;;;;;;;28.15;21.48;;;;;;;;;;5002295;28;20030;-83
2023/04/30 03:41:57;;;;;;;30.23;20.27;;;;;;;;;;4989795;28;20564;-83
2023/04/30 03:44:23;;;;;;;28.05;21.17;;;;;;;;;;4988378;28;20122;-83
2023/04/30 03:46:49;;;;;;;32.17;22.17;;;;;;;;;;5020714;28;20132;-82
2023/04/30 03:49:15;;;;;;;27.63;20.20;;;;;;;;;;5010538;28;20046;-82
2023/04/30 03:51:41;;;;;;;29.38;21.60;;;;;;;;;;4996125;28;20026;-82
2023/04/30 03:54:08;;;;;;;29.20;21.17;;;;;;;;;;4989949;28;20021;-82
2023/04/30 03:56:34;;;;;;;29.55;21.50;;;;;;;;;;5001342;28;20044;-82
2023/04/30 03:59:00;;;;;;;28.17;21.38;;;;;;;;;;5003713;28;20046;-82
2023/04/30 04:01:26;;;;;;;29.73;21.77;;;;;;;;;;4993561;28;20673;-82
2023/04/30 04:03:53;;;;;;;28.33;20.77;;;;;;;;;;5005206;28;20040;-83
2023/04/30 04:06:19;;;;;;;25.88;20.23;;;;;;;;;;5003367;28;20463;-82
2023/04/30 04:08:45;;;;;;;28.27;19.95;;;;;;;;;;5005078;28;20029;-83
2023/04/30 04:11:11;;;;;;;28.95;19.40;;;;;;;;;;5002821;28;20049;-82
2023/04/30 04:13:37;;;;;;;26.85;18.85;;;;;;;;;;5007079;28;20077;-82
2023/04/30 04:16:03;;;;;;;24.70;19.10;;;;;;;;;;5005467;28;20470;-82
2023/04/30 04:18:29;;;;;;;28.15;18.58;;;;;;;;;;4997452;28;20046;-82
2023/04/30 04:20:55;;;;;;;27.55;19.63;;;;;;;;;;5011236;28;20103;-82
2023/04/30 04:23:22;;;;;;;29.55;20.00;;;;;;;;;;5010102;28;20080;-81
2023/04/30 04:25:48;;;;;;;28.83;19.77;;;;;;;;;;5007248;28;20466;-81
2023/04/30 04:28:15;;;;;;;28.10;19.65;;;;;;;;;;5005303;28;20030;-81
2023/04/30 04:30:42;;;;;;;27.50;18.52;;;;;;;;;;5001712;28;20557;-81
2023/04/30 04:33:16;;;;;;;25.30;18.22;;;;;;;;;;4573425;28;10002897;-80
2023/04/30 04:35:42;;;;;;;24.48;18.27;;;;;;;;;;4990472;28;20052;-80
2023/04/30 04:38:08;;;;;;;24.08;17.63;;;;;;;;;;5005228;28;20474;-80
2023/04/30 04:40:34;;;;;;;24.98;17.70;;;;;;;;;;4659389;28;10000505;-81
2023/04/30 04:43:00;;;;;;;25.23;18.50;;;;;;;;;;5002879;28;20207;-80
2023/04/30 04:45:26;;;;;;;27.63;17.95;;;;;;;;;;5001951;28;20084;-80
2023/04/30 04:47:52;;;;;;;25.67;18.13;;;;;;;;;;5006545;28;20018;-81
2023/04/30 04:50:18;;;;;;;28.48;17.90;;;;;;;;;;5002785;28;20473;-81
2023/04/30 04:52:44;;;;;;;23.90;17.17;;;;;;;;;;5000462;28;20273;-81
2023/04/30 04:55:11;;;;;;;28.00;17.13;;;;;;;;;;4994989;28;20652;-81
2023/04/30 04:57:37;;;;;;;30.48;17.65;;;;;;;;;;5004216;28;20038;-81
2023/04/30 05:00:06;;;;;;;24.92;16.80;;;;;;;;;;5003119;28;20131;-81
2023/04/30 05:02:32;;;;;;;24.15;17.02;;;;;;;;;;4999349;28;20026;-81
2023/04/30 05:04:58;;;;;;;22.63;15.90;;;;;;;;;;4995730;28;20053;-81
2023/04/30 05:07:24;;;;;;;24.15;16.55;;;;;;;;;;4996632;28;20482;-81
2023/04/30 05:09:50;;;;;;;23.25;16.23;;;;;;;;;;4999729;28;20119;-81
2023/04/30 05:12:16;;;;;;;22.88;15.50;;;;;;;;;;4997479;28;20034;-80
2023/04/30 05:14:43;;;;;;;23.35;15.40;;;;;;;;;;5004445;28;20546;-80
2023/04/30 05:17:09;;;;;;;24.65;15.15;;;;;;;;;;5004909;28;20048;-80
2023/04/30 05:19:35;;;;;;;23.33;15.25;;;;;;;;;;4996239;28;20124;-80
2023/04/30 05:22:01;;;;;;;22.10;15.80;;;;;;;;;;5000434;28;20196;-80
2023/04/30 05:24:28;;;;;;;24.88;16.30;;;;;;;;;;4997892;28;20034;-81
2023/04/30 05:26:54;;;;;;;22.38;16.17;;;;;;;;;;4992744;28;20088;-81
2023/04/30 05:29:20;;;;;;;22.95;16.63;;;;;;;;;;4999502;28;20018;-77
2023/04/30 05:31:46;;;;;;;20.52;15.25;;;;;;;;;;5002532;28;20037;-75
2023/04/30 05:34:13;;;;;;;23.02;15.13;;;;;;;;;;5005773;28;20455;-77
2023/04/30 05:36:38;;;;;;;22.40;15.68;;;;;;;;;;4994482;28;20030;-78
2023/04/30 05:39:04;;;;;;;23.13;16.38;;;;;;;;;;4994588;28;20034;-79
2023/04/30 05:41:30;;;;;;;25.40;15.95;;;;;;;;;;4997426;28;20035;-79
2023/04/30 05:43:56;;;;;;;21.55;16.00;;;;;;;;;;5001794;28;20029;-79
2023/04/30 05:46:22;;;;;;;23.75;17.25;;;;;;;;;;5002148;28;20545;-79
2023/04/30 05:48:48;;;;;;;26.67;16.60;;;;;;;;;;5001037;28;20033;-79
2023/04/30 05:51:14;;;;;;;21.60;14.93;;;;;;;;;;4998323;28;20513;-79
2023/04/30 05:53:41;;;;;;;22.80;15.50;;;;;;;;;;4996821;28;21057;-78
2023/04/30 05:56:07;;;;;;;21.58;14.95;;;;;;;;;;4998616;28;20060;-79
2023/04/30 05:58:33;;;;;;;24.95;15.15;;;;;;;;;;4994657;28;20058;-78
2023/04/30 06:00:59;;;;;;;21.40;14.63;;;;;;;;;;5002000;28;20111;-78
2023/04/30 06:03:25;;;;;;;21.30;14.25;;;;;;;;;;5000101;28;20026;-78
2023/04/30 06:05:51;;;;;;;21.27;13.90;;;;;;;;;;4995683;28;20398;-79
2023/04/30 06:08:17;;;;;;;21.27;13.27;;;;;;;;;;4989801;28;20120;-78
2023/04/30 06:10:44;;;;;;;17.30;12.45;;;;;;;;;;4995444;28;20117;-78
2023/04/30 06:13:10;;;;;;;22.67;13.00;;;;;;;;;;5002893;28;20125;-78
2023/04/30 06:15:36;;;;;;;18.75;12.10;;;;;;;;;;4996257;28;20126;-79
2023/04/30 06:18:02;;;;;;;16.35;10.68;;;;;;;;;;5000833;28;20044;-74
2023/04/30 06:20:28;;;;;;;17.85;9.77;;;;;;;;;;5000494;28;20418;-74
2023/04/30 06:22:54;;;;;;;20.65;8.13;;;;;;;;;;5008523;28;20033;-74
2023/04/30 06:25:21;;;;;;;13.68;7.50;;;;;;;;;;5004824;28;20030;-74
2023/04/30 06:27:47;;;;;;;18.08;7.57;;;;;;;;;;5000239;28;20049;-74
2023/04/30 06:30:13;;;;;;;13.70;7.15;;;;;;;;;;5004210;28;20049;-76
2023/04/30 06:32:38;;;;;;;18.23;7.70;;;9.50;99.90;;;;;;4997188;28;20030;-74
2023/04/30 06:35:04;;;;;;;15.75;7.10;;;8.50;99.90;;;;;;4996422;28;20056;-74
2023/04/30 06:37:36;;;;;;;17.70;7.35;;;8.50;99.90;;;;;;5005774;28;20134;-74
2023/04/30 06:40:03;;;;;;;17.25;7.93;;;8.60;99.90;;;;;;5006469;28;20045;-74
2023/04/30 06:42:33;;;;;;;11.88;7.20;;;8.70;99.90;;;;;;5005588;28;20612;-75
2023/04/30 06:45:01;;;;;;;14.85;6.72;;;8.80;99.90;;;;;;5004253;28;20033;-74
2023/04/30 06:47:33;;;;;;;12.30;7.30;;;8.90;99.90;;;;;;5002920;28;20048;-75
2023/04/30 06:49:59;;;;;;;15.80;7.72;;;9.10;99.90;;;;;;4994935;28;20775;-76
2023/04/30 06:52:25;;;;;;;12.75;6.57;;;9.30;99.90;;;;;;4996836;28;20421;-76
2023/04/30 06:54:51;;;;;;;11.88;6.70;;;9.50;99.90;;;;;;5008923;28;20080;-74
2023/04/30 06:57:16;;;;;;;14.10;6.78;;;9.70;99.90;;;;;;5007550;28;20068;-74
2023/04/30 06:59:43;;;;;;;15.45;7.45;;;9.90;99.90;;;;;;5005202;28;20311;-76
2023/04/30 07:02:09;;;;;;;14.85;6.40;;;10.10;99.90;;;;;;4991163;28;20061;-76
2023/04/30 07:04:34;;;;;;;15.82;6.22;;;10.30;99.90;;;;;;4995545;28;20054;-75
2023/04/30 07:07:03;;;;;;;11.02;5.72;;;10.30;99.90;;;;;;5005887;28;20037;-76
2023/04/30 07:09:28;;;;;;;13.55;5.90;;;10.40;99.90;;;;;;5004119;28;20037;-75
2023/04/30 07:11:54;;;;;;;12.20;5.57;;;10.50;99.90;;;;;;5004412;28;20030;-75
2023/04/30 07:14:20;;;;;;;12.35;5.68;;;10.60;99.90;;;;;;5000920;28;20107;-74
2023/04/30 07:16:48;;;;;;;9.68;3.92;;;10.70;99.90;;;;;;5005282;28;20061;-74
2023/04/30 07:19:14;;;;;;;12.30;4.38;;;10.90;99.90;;;;;;4993272;28;20041;-74
2023/04/30 07:21:39;;;;;;;11.48;4.43;;;11.10;99.90;;;;;;5004272;28;20087;-74
2023/04/30 07:24:05;;;;;;;14.05;3.83;;;11.20;99.90;;;;;;5002742;28;20386;-74
2023/04/30 07:26:30;;;;;;;9.50;3.50;;;11.40;99.90;;;;;;5008624;28;20034;-74
2023/04/30 07:28:56;;;;;;;11.13;3.03;;;11.50;99.90;;;;;;5005795;28;20030;-74
2023/04/30 07:31:21;;;;;;;9.20;3.17;;;11.60;99.90;;;;;;4990617;28;20038;-74
2023/04/30 07:33:49;;;;;;;7.32;2.60;;;11.60;99.90;;;;;;4993376;28;20268;-74
2023/04/30 07:36:15;;;;;;;7.40;2.47;;;11.70;99.90;;;;;;5005012;28;20117;-74
2023/04/30 07:38:41;;;;;;;10.57;2.40;;;11.80;99.90;;;;;;5008907;28;20394;-74
2023/04/30 07:41:08;;;;;;;9.70;2.50;;;11.90;99.90;;;;;;5003211;28;20041;-74
2023/04/30 07:43:34;;;;;;;9.63;2.78;;;12.00;99.90;;;;;;5007884;28;20025;-75
2023/04/30 07:46:01;;;;;;;8.77;2.47;;;12.00;99.90;;;;;;4999268;28;20038;-74
2023/04/30 07:48:26;;;;;;;10.05;2.75;;;12.00;99.90;;;;;;5005589;28;20030;-75
2023/04/30 07:50:52;;;;;;;14.85;3.25;;;12.00;99.90;;;;;;4993254;28;20037;-74
2023/04/30 07:53:17;;;;;;;13.10;2.78;;;12.10;99.90;;;;;;4997728;28;20361;-74
2023/04/30 07:55:43;;;;;;;7.97;2.50;;;12.20;99.90;;;;;;5011774;28;20033;-74
2023/04/30 07:58:09;;;;;;;8.38;2.50;;;12.10;99.90;;;;;;5009321;28;20026;-74
2023/04/30 08:00:34;;;;;;;8.93;2.40;;;11.90;99.90;;;;;;5003622;28;20382;-74
2023/04/30 08:03:00;;;;;;;9.20;2.50;;;11.90;99.90;;;;;;5002864;28;20590;-74
2023/04/30 08:05:26;;;;;;;8.65;2.60;;;;;;;;;;5004655;28;20045;-74
2023/04/30 08:07:52;;;;;;;12.38;2.97;;;12.10;99.90;;;;;;5004082;28;20121;-73
2023/04/30 08:10:17;;;;;;;12.90;2.65;;;12.20;99.90;;;;;;5008288;28;20453;-74
2023/04/30 08:12:44;;;;;;;9.65;2.53;;;12.30;99.90;;;;;;4999625;28;20113;-75
2023/04/30 08:15:09;;;;;;;8.23;2.20;;;12.40;99.90;;;;;;4997599;28;20027;-74
2023/04/30 08:17:35;;;;;;;11.90;2.63;;;12.40;99.90;;;;;;4998228;28;20025;-78
2023/04/30 08:20:03;;;;;;;7.78;2.55;;;12.40;99.90;;;;;;5002669;28;20034;-78
2023/04/30 08:22:29;;;;;;;7.45;2.45;;;12.50;99.90;;;;;;5004811;28;20100;-75
2023/04/30 08:24:55;;;;;;;8.73;2.22;;;12.50;99.90;;;;;;5009075;28;20030;-75
2023/04/30 08:27:21;;;;;;;7.55;2.65;;;12.50;99.90;;;;;;5006683;28;20079;-75
2023/04/30 08:29:47;;;;;;;9.15;2.20;;;12.50;99.90;;;;;;5005820;28;20524;-75
2023/04/30 08:32:12;;;;;;;9.05;2.63;;;12.60;99.90;;;;;;5002363;28;20033;-75
2023/04/30 08:34:42;;;;;;;10.10;2.30;;;12.60;99.90;;;;;;5004673;28;20036;-74
2023/04/30 08:37:08;;;;;;;8.63;2.40;;;12.60;99.90;;;;;;5002717;28;20034;-76
2023/04/30 08:39:33;;;;;;;7.20;2.25;;;12.60;99.90;;;;;;4999894;28;20087;-76
2023/04/30 08:42:02;;;;;;;8.38;2.53;;;12.70;99.90;;;;;;5003609;28;20048;-76
2023/04/30 08:44:30;;;;;;;8.75;2.30;;;12.70;99.90;;;;;;5008733;28;20348;-76
2023/04/30 08:46:59;;;;;;;6.15;2.28;;;12.70;99.90;;;;;;5006020;28;20290;-77
2023/04/30 08:49:25;;;;;;;8.50;2.10;;;12.70;99.90;;;;;;5003131;28;20029;-77
2023/04/30 08:51:51;;;;;;;11.10;2.40;;;12.70;99.90;;;;;;5005016;28;20034;-77
2023/04/30 08:54:17;;;;;;;7.57;2.80;;;12.70;99.90;;;;;;5004062;28;20102;-76
2023/04/30 08:56:46;;;;;;;5.68;2.17;;;12.70;99.90;;;;;;5001288;28;20037;-75
2023/04/30 08:59:12;;;;;;;6.97;2.10;;;12.60;99.90;;;;;;5001571;28;20026;-76
2023/04/30 09:01:38;;;;;;;7.80;1.70;;;12.70;99.90;;;;;;5004321;28;20022;-75
2023/04/30 09:04:04;;;;;;;5.05;1.65;;;12.60;99.90;;;;;;5003506;28;20168;-75
2023/04/30 09:06:30;;;;;;;6.45;1.70;;;12.50;99.90;;;;;;4998267;28;20034;-75
2023/04/30 09:08:56;;;;;;;9.00;2.10;;;12.60;99.90;;;;;;5007794;28;20090;-75
2023/04/30 09:11:29;;;;;;;5.47;1.67;;;12.70;99.90;;;;;;5003814;28;20030;-75
2023/04/30 09:13:57;;;;;;;7.35;1.90;;;12.80;99.90;;;;;;4996193;28;20029;-75
2023/04/30 09:16:24;;;;;;;6.53;1.88;;;12.70;99.90;;;;;;5007971;28;20034;-75
2023/04/30 09:18:50;;;;;;;5.53;1.50;;;12.70;99.90;;;;;;5005503;28;20452;-75
2023/04/30 09:21:16;;;;;;;10.77;2.28;;;12.80;99.90;;;;;;4995797;28;20553;-75
2023/04/30 09:23:59;;;;;;;7.80;1.70;;;12.80;99.90;;;;;;5009202;28;20137;-75
2023/04/30 09:26:31;;;;;;;5.18;1.60;;;12.80;99.90;;;;;;5007045;28;20045;-75
2023/04/30 09:28:57;;;;;;;7.78;2.25;;;12.90;99.90;;;;;;5008624;28;20026;-76
2023/04/30 09:31:24;;;;;;;5.18;1.95;;;13.10;99.90;;;;;;5004006;28;20041;-75
2023/04/30 09:33:50;;;;;;;4.32;1.75;;;13.10;99.90;;;;;;5001172;28;20033;-76
2023/04/30 09:36:15;;;;;;;4.75;1.60;;;13.10;99.90;;;;;;5008783;28;20034;-76
2023/04/30 09:38:41;;;;;;;9.32;1.73;;;13.20;99.90;;;;;;5007714;28;20125;-76
2023/04/30 09:41:21;;;;;;;6.13;1.55;;;13.20;99.90;;;;;;5005669;28;20485;-77
2023/04/30 09:43:46;;;;;;;2.92;1.42;;;13.30;99.90;;;;;;4655509;28;10000506;-77
2023/04/30 09:46:12;;;;;;;4.85;1.55;;;13.30;99.90;;;;;;5004738;28;20053;-77
2023/04/30 09:48:40;;;;;;;6.47;1.48;;;13.30;99.90;;;;;;5000537;28;20030;-79
2023/04/30 09:51:06;;;;;;;3.25;1.40;;;13.40;99.90;;;;;;4999216;28;20052;-78
2023/04/30 09:53:36;;;;;;;3.55;1.10;;;13.60;99.90;;;;;;4998878;28;20410;-80
2023/04/30 09:56:06;;;;;;;3.30;1.35;;;13.70;99.90;;;;;;5002313;28;20438;-82
2023/04/30 09:58:37;;;;;;;5.32;1.30;;;13.90;99.90;;;;;;4993912;28;20459;-79
2023/04/30 10:01:07;;;;;;;5.35;1.30;;;14.00;99.90;;;;;;4991054;28;20764;-79
2023/04/30 10:03:34;;;;;;;1.45;0.80;;;14.00;99.90;;;;;;5001710;28;20476;-83
2023/04/30 10:05:59;;;;;;;3.42;1.13;;;14.00;99.90;;;;;;4996679;28;20037;-81
2023/04/30 10:08:25;;;;;;;6.60;1.30;;;14.00;99.90;;;;;;5005236;28;20482;-81
2023/04/30 10:10:59;;;;;;;9.85;1.00;;;14.00;99.90;;;;;;5000315;28;20134;-81
2023/04/30 10:13:28;;;;;;;2.25;0.90;;;13.90;99.90;;;;;;4990736;28;20483;-84
2023/04/30 10:16:00;;;;;;;4.25;1.30;;;14.00;99.90;;;;;;4993823;28;20049;-78
2023/04/30 10:18:38;;;;;;;3.83;1.10;;;14.20;99.90;;;;;;4997523;28;20168;-77
2023/04/30 10:21:10;;;;;;;2.40;0.90;;;14.40;99.90;;;;;;4999239;28;20053;-78
2023/04/30 10:23:42;;;;;;;3.55;0.98;;;14.60;99.90;;;;;;4998631;28;20033;-78
2023/04/30 10:26:11;;;;;;;12.55;1.42;;;14.80;99.90;;;;;;4996837;28;20322;-78
2023/04/30 10:28:37;;;;;;;4.28;1.35;;;14.80;99.90;;;;;;5009284;28;20501;-77
2023/04/30 10:31:06;;;;;;;3.15;1.17;;;14.70;99.90;;;;;;5001515;28;20045;-78
2023/04/30 10:33:50;;;;;;;2.83;0.80;;;14.70;99.90;;;;;;4997987;28;20029;-78
2023/04/30 10:36:31;;;;;;;2.38;1.00;;;14.80;99.90;;;;;;4993536;28;20398;-77
2023/04/30 10:38:58;;;;;;;3.33;1.00;;;14.80;99.90;;;;;;5006871;28;20099;-78
2023/04/30 10:41:26;;;;;;;3.30;0.85;;;14.80;99.90;;;;;;5001141;28;20132;-80
2023/04/30 10:43:56;;;;;;;6.10;1.20;;;14.80;99.90;;;;;;4992572;28;20382;-78
2023/04/30 10:46:23;;;;;;;0.75;0.50;;;14.80;99.90;;;;;;5001701;28;20122;-84
2023/04/30 10:48:49;;;;;;;2.70;0.80;;;14.80;99.90;;;;;;5001101;28;20446;-78
2023/04/30 10:51:15;;;;;;;3.08;0.73;;;14.90;99.90;;;;;;5001035;28;20038;-78
2023/04/30 10:53:42;;;;;;;4.13;1.02;;;14.90;99.90;;;;;;5004178;28;20026;-77
2023/04/30 10:56:08;;;;;;;2.92;0.90;;;14.90;99.90;;;;;;4998576;28;20033;-75
2023/04/30 10:58:38;;;;;;;1.00;0.70;;;15.00;99.90;;;;;;4999303;28;20022;-76
2023/04/30 11:01:07;;;;;;;1.70;0.88;;;15.10;99.90;;;;;;5003823;28;20042;-76
2023/04/30 11:03:34;;;;;;;4.00;1.15;;;15.20;99.90;;;;;;5003993;28;20021;-75
2023/04/30 11:06:07;;;;;;;2.85;1.00;;;15.40;99.90;;;;;;4999383;28;20101;-76
2023/04/30 11:08:37;;;;;;;2.05;0.80;;;15.60;99.90;;;;;;5002965;28;20029;-76
2023/04/30 11:11:04;;;;;;;2.65;1.00;;;15.70;99.90;;;;;;5004603;28;20038;-76
2023/04/30 11:13:46;;;;;;;4.18;0.80;;;15.70;99.90;;;;;;4999984;28;20394;-76
2023/04/30 11:16:11;;;;;;;1.50;0.70;;;15.60;99.90;;;;;;5000936;28;20034;-75
2023/04/30 11:18:43;;;;;;;4.80;1.00;;;15.50;99.90;;;;;;5002075;28;20040;-78
2023/04/30 11:21:09;;;;;;;0.77;0.57;;;15.50;99.90;;;;;;5000353;28;20027;-76
2023/04/30 11:23:35;;;;;;;2.58;1.20;;;15.40;99.90;;;;;;4996753;28;20034;-75
2023/04/30 11:26:02;;;;;;;2.17;0.70;;;15.50;99.90;;;;;;5005334;28;20490;-75
2023/04/30 11:28:30;;;;;;;2.13;0.73;;;15.60;99.90;;;;;;5005436;28;20442;-76
2023/04/30 11:30:57;;;;;;;4.55;0.85;;;15.60;99.90;;;;;;5008570;28;20057;-74
2023/04/30 11:33:28;;;;;;;2.47;0.50;;;15.50;99.90;;;;;;5005009;28;20034;-75
2023/04/30 11:35:55;;;;;;;1.45;0.40;;;15.50;99.90;;;;;;5003932;28;20029;-76
2023/04/30 11:38:36;;;;;;;2.47;0.50;;;15.50;99.90;;;;;;5006751;28;20092;-76
2023/04/30 11:41:03;;;;;;;1.02;0.60;;;15.70;99.90;;;;;;5003257;28;20112;-76
2023/04/30 11:43:30;;;;;;;1.38;0.70;;;15.70;99.90;;;;;;5008921;28;20502;-76
2023/04/30 11:46:11;;;;;;;1.55;0.60;;;15.70;99.90;;;;;;5007437;28;20054;-75
2023/04/30 11:48:39;;;;;;;1.33;0.63;;;15.80;99.90;;;;;;5007880;28;20033;-76
2023/04/30 11:51:15;;;;;;;1.73;0.60;;;15.70;99.90;;;;;;5009779;28;20030;-76
2023/04/30 11:53:41;;;;;;;1.25;0.50;;;15.80;99.90;;;;;;5009847;28;20474;-77
2023/04/30 11:56:07;;;;;;;1.80;0.55;;;15.90;99.90;;;;;;5002017;28;20486;-75
2023/04/30 11:58:36;;;;;;;2.60;0.68;;;15.90;99.90;;;;;;5002728;28;20088;-76
2023/04/30 12:01:03;;;;;;;1.50;0.60;;;15.80;99.90;;;;;;5008464;28;20045;-76
2023/04/30 12:03:28;;;;;;;1.30;0.60;;;15.90;99.90;;;;;;5003230;28;20140;-76
2023/04/30 12:05:54;;;;;;;0.85;0.50;;;16.10;99.90;;;;;;5003812;28;20097;-77
2023/04/30 12:08:19;;;;;;;2.00;0.60;;;16.00;99.90;;;;;;5002981;28;20030;-76
2023/04/30 12:10:45;;;;;;;0.50;0.40;;;16.00;99.70;;;;;;4999017;28;20109;-76
2023/04/30 12:13:15;;;;;;;2.53;0.55;;;15.90;99.90;;;;;;5008473;28;20502;-76
2023/04/30 12:15:41;;;;;;;1.55;0.60;;;16.00;99.90;;;;;;5008237;28;20062;-76
2023/04/30 12:18:12;;;;;;;2.67;0.70;;;16.10;99.90;;;;;;5004133;28;20081;-77
2023/04/30 12:20:39;;;;;;;2.65;0.40;;;16.10;99.60;;;;;;5007965;28;20034;-75
2023/04/30 12:23:05;;;;;;;2.03;0.55;;;16.10;99.80;;;;;;5008071;28;20494;-75
2023/04/30 12:25:40;;;;;;;1.02;0.40;;;16.00;98.90;;;;;;5003164;28;20080;-76
2023/04/30 12:28:05;;;;;;;3.47;0.57;;;15.90;97.90;;;;;;5009539;28;20030;-75
2023/04/30 12:30:31;;;;;;;1.08;0.57;;;15.90;99.90;;;;;;5003369;28;20021;-76
2023/04/30 12:32:58;;;;;;;2.70;0.40;;;16.00;99.00;;;;;;5011708;28;20429;-76
2023/04/30 12:35:27;;;;;;;2.88;0.55;;;16.00;99.30;;;;;;5003687;28;20513;-76
2023/04/30 12:38:03;;;;;;;2.25;0.40;;;16.10;98.00;;;;;;5003027;28;21128;-74
2023/04/30 12:40:28;;;;;;;1.50;0.52;;;16.10;98.50;;;;;;5004825;28;20030;-76
2023/04/30 12:43:01;;;;;;;1.30;0.55;;;16.10;98.10;;;;;;4996911;28;20029;-76
2023/04/30 12:45:46;;;;;;;3.60;0.47;;;16.20;98.80;;;;;;4999079;28;20123;-76
2023/04/30 12:48:14;;;;;;;1.25;0.30;;;16.40;97.70;;;;;;5008733;28;20383;-76
2023/04/30 12:50:40;;;;;;;1.15;0.32;;;16.50;96.90;;;;;;5005744;28;20040;-76
2023/04/30 12:53:06;;;;;;;1.65;0.50;;;16.50;95.10;;;;;;5009057;28;20026;-75
2023/04/30 12:55:34;;;;;;;0.98;0.32;;;16.60;96.30;;;;;;5006131;28;20087;-75
2023/04/30 12:58:03;;;;;;;3.72;0.50;;;16.50;95.80;;;;;;5001465;28;20042;-75
2023/04/30 13:00:41;;;;;;;1.95;0.60;;;16.40;96.30;;;;;;4999685;28;20490;-75
2023/04/30 13:03:07;;;;;;;1.55;0.30;;;16.30;95.20;;;;;;5007111;28;20036;-75
2023/04/30 13:05:32;;;;;;;1.67;0.60;;;16.40;95.40;;;;;;4997716;28;20105;-76
2023/04/30 13:08:02;;;;;;;2.17;0.40;;;16.50;95.70;;;;;;5005332;28;20057;-76
2023/04/30 13:10:28;;;;;;;1.52;0.47;;;16.40;95.10;;;;;;5008017;28;20096;-76
2023/04/30 13:12:54;;;;;;;2.75;0.40;;;16.50;94.60;;;;;;5010160;28;20032;-76
2023/04/30 13:15:19;;;;;;;1.65;0.50;;;16.50;95.30;;;;;;5002952;28;20038;-75
2023/04/30 13:17:45;;;;;;;0.60;0.32;;;16.60;94.60;;;;;;5002522;28;20068;-76
2023/04/30 13:20:11;;;;;;;0.63;0.40;;;16.80;94.10;;;;;;5006396;28;20057;-78